Wilson Landing, British Columbia

12:45 AM PST on February 26, 2017 (GMT -0800)
McKinley Landing | | Change Station

Elev 1243 ft 49.97 °N, 119.46 °W | Updated 6 seconds ago

Overcast
Overcast
29.6 °F
Feels Like 30 °F
N
0.0
Wind Variable Wind from NE

Today
High -- | Low -- °F
--% Chance of Precip.
Yesterday
High -- | Low -- °F
Precip. -- in
Pressure 29.87 in
Visibility 2.5 miles
Clouds Overcast 1700 ft
Windchill 30 °F
Dew Point 29 °F
Humidity 98%
Rainfall 0.00 in
Snow Depth Not available.
6:46 AM 5:35 PM
Waning Crescent, 0% visible
SPECI CYLW 260844Z AUTO 00000KT 2 1/2SM -SN OVC017 M01/M02 A2981 RMK SLP115
Pressure 29.87 in
Visibility 2.5 miles
Clouds Overcast 1700 ft
Windchill 30 °F
Dew Point 29 °F
Humidity 98%
Rainfall 0.00 in
Snow Depth Not available.
6:46 AM 5:35 PM
Waning Crescent, 0% visible
SPECI CYLW 260844Z AUTO 00000KT 2 1/2SM -SN OVC017 M01/M02 A2981 RMK SLP115

Get Your Daily Forecast Email!

Thanks for signing up!

Be on the lookout for a verification email in your inbox.

You'll start receiving the daily forecast at 8 AM.

×

10-Day Weather Forecast

Almanac

Astronomy

Feb. 26, 2017 Rise Set
Actual Time
Civil Twilight
Nautical Twilight
Astronomical Twilight
Moon
Length of Visible Light
Length of Day
Tomorrow will be .
, % of the Moon is Illuminated

Today's Extremes

Country Highs Country Lows

Community

WunderPhotos

Upload Photos

1,962,540 photos uploaded!

WunderBlog® & News

Nearby

Air Quality

  Air Quality AQ Index Pollutant
Not available.

Snow Depth

Station Depth Elevation

Earthquake Activity

City Distance Mag. Time & Date
Minimum magnitude displayed is 2.5.

Coastal Water Temperatures

Place Temperature

Stations

Nearby Weather Stations

Station Location Temp. Windchill Dew Point Humidity Wind Precip. Elev Updated Type
                   

Watches & Warnings

There are currently no watches in effect.